Hauptseite
METAR-TAF:

METAR-TAF

Flughäfen :

Flughafen Bologna

Bologna, Italien

Breite: 44-32N, Länge: 011-18E, Höhe: 36 m

Beobachtung

Neuester Wetterbericht von vor 42 Minuten, um 20:20 UTC
Wind 7 kt aus Süd
Temperatur 0°C
Luftfeuchtigkeit 74%
Luftdruck 1020 hPa
Sichtweite 10 km oder mehr
keine Wolken unter 1500 m und keine Kumulonimbus oder Gewitterwolken

METAR: LIPE 152020Z 19007KT CAVOK 00/M04 Q1020

Zeit: 22:02 (21:02 UTC)

Prognose

Neuester Wetterbericht von vor 4 Stunden und 2 Minuten, um 17:00 UTC
Gültige Prognose vom 15 um 18 UTC bis 16 um 18 UTC
Wind 5 kt aus unterschiedlichen Richtungen
Sichtweite 10 km oder mehr
keine Wolken unter 1500 m und keine Kumulonimbus oder Gewitterwolken

TAF: LIPE 151700Z 1518/1618 VRB05KT CAVOK

Wetterbeobachtungen und Prognosen von mehr als 4000 Flughäfen (METAR und TAF Bericht).

Die verfügbaren Stationen werden durch gelbe und rote Markierungen auf der Karte dargestellt.

Führen Sie die Maus auf sie, um den Namen der Station zu sehen.

Darauf klicken, um die Beobachtung von Wetterbeobachtungen und Prognosen zu sehen.

Um die Karte zu ändern : klicken Sie auf den grünen Tasten mit einem schwarzen Kreuz Zum Vergrößern, auf den grünen Button mit einem Gedankenstrich zu verkleinern, oder auf die grünen Pfeile für benachbarte Karten.


METAR-TAF: